Destiny — WDG5538 — position and weather

sailwx.info

Track history (hours):
 
Tides and Currents Weather Stations Pressure Air Temp Water Temp Dewpoint Dewpoint Depression Visibility Wind Speed Wind Dir Waves Ship Positions

Destiny

Owner: Hunter, Richard K, Newport Beach, CA. More information available from US FCC via Universal Licensing System and Coast Guard Vessel Documentation Center.

Last reported at 2017-Nov-22 21:32 UTC. Time now 2017-Nov-23 22:16 UTC.
Position N 39°17' W 076°36'.

Length 17 m.

Type: Pleasure craft. MMSI: 367547650.

Date/timePositionNaut miles runAvg speedWind from/ knotsBaromVisibWave heightAir tempDewpointWater temp
2017-Nov-22 21:32N 39°17' W 076°36'  
2017-Nov-19 23:26N 39°17' W 076°36'0 0.0
2017-Nov-19 21:47N 39°17' W 076°36'0 0.0
2017-Nov-19 21:29N 39°17' W 076°36'0 0.0
2017-Nov-19 20:56N 39°17' W 076°36'0 0.0
2017-Nov-19 16:44N 39°17' W 076°36'0 0.0
2017-Nov-19 16:29N 39°17' W 076°36'0 0.0
2017-Nov-19 13:08N 39°17' W 076°36'0 0.0
2017-Nov-19 12:38N 39°17' W 076°36'0 0.0
2017-Nov-19 12:20N 39°17' W 076°36'0 0.0
2017-Nov-19 11:56N 39°17' W 076°36'0 0.0
2017-Nov-19 11:26N 39°17' W 076°36'0 0.0
2017-Nov-18 06:14N 39°17' W 076°36'0 0.0
2017-Nov-18 05:50N 39°17' W 076°36'0 0.0
2017-Nov-18 04:38N 39°17' W 076°36'0 0.0
2017-Nov-18 03:44N 39°17' W 076°36'0 0.0
2017-Nov-18 03:27N 39°17' W 076°36'0 0.0
2017-Nov-18 02:50N 39°17' W 076°36'0 0.0
2017-Nov-17 22:21N 39°17' W 076°36'  
2017-Nov-15 10:32N 39°17' W 076°36'0 0.0
2017-Nov-15 08:50N 39°17' W 076°36'0 0.0
2017-Nov-15 08:26N 39°17' W 076°36'0 0.0
2017-Nov-15 04:44N 39°17' W 076°36'0 0.0
2017-Nov-15 04:14N 39°17' W 076°36'0 0.0
2017-Nov-15 03:56N 39°17' W 076°36'0 0.0
2017-Nov-15 03:20N 39°17' W 076°36'0 0.0
2017-Nov-15 01:50N 39°17' W 076°36'0 0.0
2017-Nov-14 22:37N 39°17' W 076°36'0 2.9
2017-Nov-14 22:29N 39°17' W 076°36'5 6.6
2017-Nov-14 21:48N 39°13' W 076°32'2 7.1
2017-Nov-14 21:27N 39°12' W 076°29'1 0.4
2017-Nov-14 18:06N 39°11' W 076°28'1 8.0
2017-Nov-14 18:00N 39°11' W 076°29'2 1.7
2017-Nov-14 16:34N 39°14' W 076°30'1 5.8
2017-Nov-14 16:23N 39°13' W 076°31'3 7.5
2017-Nov-14 16:00N 39°15' W 076°34'2 1.5
2017-Nov-14 14:24N 39°17' W 076°36'0 0.0
2017-Nov-13 01:51N 39°17' W 076°36'0 0.0
2017-Nov-12 23:48N 39°17' W 076°36'0 0.0
2017-Nov-12 22:15N 39°17' W 076°36'0 0.0
2017-Nov-12 21:51N 39°17' W 076°36'  
Track history (hours):
 
Tides and Currents Weather Stations Pressure Air Temp Water Temp Dewpoint Dewpoint Depression Visibility Wind Speed Wind Dir Waves Ship Positions

Destiny

Owner: Hunter, Richard K, Newport Beach, CA. More information available from US FCC via Universal Licensing System and Coast Guard Vessel Documentation Center.

Last reported at 2017-Nov-22 21:32 UTC. Time now 2017-Nov-23 22:16 UTC.
Position N 39°17' W 076°36'.

Length 17 m.

Type: Pleasure craft. MMSI: 367547650.

Date/timePositionNaut miles runAvg speedWind from/ knotsBaromVisibWave heightAir tempDewpointWater temp
2017-Nov-22 21:32N 39°17' W 076°36'  
2017-Nov-19 23:26N 39°17' W 076°36'0 0.0
2017-Nov-19 21:47N 39°17' W 076°36'0 0.0
2017-Nov-19 21:29N 39°17' W 076°36'0 0.0
2017-Nov-19 20:56N 39°17' W 076°36'0 0.0
2017-Nov-19 16:44N 39°17' W 076°36'0 0.0
2017-Nov-19 16:29N 39°17' W 076°36'0 0.0
2017-Nov-19 13:08N 39°17' W 076°36'0 0.0
2017-Nov-19 12:38N 39°17' W 076°36'0 0.0
2017-Nov-19 12:20N 39°17' W 076°36'0 0.0
2017-Nov-19 11:56N 39°17' W 076°36'0 0.0
2017-Nov-19 11:26N 39°17' W 076°36'0 0.0
2017-Nov-18 06:14N 39°17' W 076°36'0 0.0
2017-Nov-18 05:50N 39°17' W 076°36'0 0.0
2017-Nov-18 04:38N 39°17' W 076°36'0 0.0
2017-Nov-18 03:44N 39°17' W 076°36'0 0.0
2017-Nov-18 03:27N 39°17' W 076°36'0 0.0
2017-Nov-18 02:50N 39°17' W 076°36'0 0.0
2017-Nov-17 22:21N 39°17' W 076°36'  
2017-Nov-15 10:32N 39°17' W 076°36'0 0.0
2017-Nov-15 08:50N 39°17' W 076°36'0 0.0
2017-Nov-15 08:26N 39°17' W 076°36'0 0.0
2017-Nov-15 04:44N 39°17' W 076°36'0 0.0
2017-Nov-15 04:14N 39°17' W 076°36'0 0.0
2017-Nov-15 03:56N 39°17' W 076°36'0 0.0
2017-Nov-15 03:20N 39°17' W 076°36'0 0.0
2017-Nov-15 01:50N 39°17' W 076°36'0 0.0
2017-Nov-14 22:37N 39°17' W 076°36'0 2.9
2017-Nov-14 22:29N 39°17' W 076°36'5 6.6
2017-Nov-14 21:48N 39°13' W 076°32'2 7.1
2017-Nov-14 21:27N 39°12' W 076°29'1 0.4
2017-Nov-14 18:06N 39°11' W 076°28'1 8.0
2017-Nov-14 18:00N 39°11' W 076°29'2 1.7
2017-Nov-14 16:34N 39°14' W 076°30'1 5.8
2017-Nov-14 16:23N 39°13' W 076°31'3 7.5
2017-Nov-14 16:00N 39°15' W 076°34'2 1.5
2017-Nov-14 14:24N 39°17' W 076°36'0 0.0
2017-Nov-13 01:51N 39°17' W 076°36'0 0.0
2017-Nov-12 23:48N 39°17' W 076°36'0 0.0
2017-Nov-12 22:15N 39°17' W 076°36'0 0.0
2017-Nov-12 21:51N 39°17' W 076°36'  

Dump ship's entire track history